Time,TemperatureF,DewpointF,PressureIn,WindDirection,WindDirectionDegrees,WindSpeedMPH,WindSpeedGustMPH,Humidity,HourlyPrecipIn,Conditions,Clouds,dailyrainin,SolarRadiationWatts/m^2,SoftwareType,DateUTC
2017-03-23 00:03:00,30.0,25.5,30.05,SSE,150,0.0,1.0,83,0.00,,,0.01,0.0,meteohub,2017-03-23 07:03:00,
2017-03-23 00:08:00,30.0,25.7,30.05,SSE,150,3.0,3.0,84,0.00,,,0.00,0.0,meteohub,2017-03-23 07:08:00,
2017-03-23 00:14:00,30.4,26.1,30.05,SSE,150,0.0,4.0,84,0.00,,,0.00,0.0,meteohub,2017-03-23 07:14:00,
2017-03-23 00:19:00,30.2,25.9,30.06,SSE,149,0.0,4.0,84,0.00,,,0.00,0.0,meteohub,2017-03-23 07:19:00,
2017-03-23 00:24:00,30.0,25.7,30.06,SSE,150,0.0,3.0,84,0.00,,,0.00,0.0,meteohub,2017-03-23 07:24:00,
2017-03-23 00:29:00,29.8,25.9,30.07,SSE,150,0.0,0.0,85,0.00,,,0.00,0.0,meteohub,2017-03-23 07:29:00,
2017-03-23 00:34:00,29.7,25.7,30.07,SSE,150,0.0,0.0,85,0.00,,,0.00,0.0,meteohub,2017-03-23 07:34:00,
2017-03-23 00:40:00,29.5,25.5,30.07,SSE,149,1.0,1.0,85,0.00,,,0.00,0.0,meteohub,2017-03-23 07:40:00,
2017-03-23 00:45:00,29.8,26.4,30.07,SSE,150,0.0,1.0,87,0.00,,,0.00,0.0,meteohub,2017-03-23 07:45:00,
2017-03-23 00:50:00,30.4,27.0,30.07,SSE,150,0.0,2.0,87,0.00,,,0.00,0.0,meteohub,2017-03-23 07:50:00,
2017-03-23 00:55:00,30.6,27.0,30.07,SSE,150,2.0,2.0,86,0.00,,,0.00,0.0,meteohub,2017-03-23 07:55:00,
2017-03-23 01:02:00,30.4,26.8,30.08,SSE,149,0.0,2.0,86,0.00,,,0.00,0.0,meteohub,2017-03-23 08:02:00,
2017-03-23 01:07:00,30.0,26.4,30.08,SSE,150,0.0,3.0,86,0.00,,,0.00,0.0,meteohub,2017-03-23 08:07:00,
2017-03-23 01:12:00,29.8,26.2,30.08,SSE,150,0.0,1.0,86,0.00,,,0.00,0.0,meteohub,2017-03-23 08:12:00,
2017-03-23 01:17:00,29.7,26.1,30.08,SSE,150,0.0,1.0,86,0.00,,,0.00,0.0,meteohub,2017-03-23 08:17:00,
2017-03-23 01:22:00,29.7,26.1,30.08,SSE,150,0.0,1.0,86,0.00,,,0.00,0.0,meteohub,2017-03-23 08:22:00,
2017-03-23 01:28:00,29.8,26.4,30.08,SSE,149,0.0,4.0,87,0.00,,,0.00,0.0,meteohub,2017-03-23 08:28:00,
2017-03-23 01:33:00,29.8,26.2,30.08,SSE,149,0.0,4.0,86,0.00,,,0.00,0.0,meteohub,2017-03-23 08:33:00,
2017-03-23 01:38:00,29.8,26.2,30.08,SSE,150,3.0,4.0,86,0.00,,,0.00,0.0,meteohub,2017-03-23 08:38:00,
2017-03-23 01:43:00,29.7,25.7,30.08,SSE,150,0.0,4.0,85,0.00,,,0.00,0.0,meteohub,2017-03-23 08:43:00,
2017-03-23 01:48:00,29.7,25.7,30.08,SSE,149,0.0,4.0,85,0.00,,,0.00,0.0,meteohub,2017-03-23 08:48:00,
2017-03-23 01:53:00,29.3,25.3,30.09,SSE,149,0.0,4.0,85,0.00,,,0.00,0.0,meteohub,2017-03-23 08:53:00,
2017-03-23 01:59:00,29.1,25.2,30.09,SSE,150,0.0,3.0,85,0.00,,,0.00,0.0,meteohub,2017-03-23 08:59:00,
2017-03-23 02:04:00,29.1,25.2,30.09,SSE,150,0.0,3.0,85,0.00,,,0.00,0.0,meteohub,2017-03-23 09:04:00,
2017-03-23 02:09:00,29.1,25.2,30.09,SSE,150,1.0,4.0,85,0.00,,,0.00,0.0,meteohub,2017-03-23 09:09:00,
2017-03-23 02:14:00,29.5,25.5,30.10,SSE,149,0.0,4.0,85,0.00,,,0.00,0.0,meteohub,2017-03-23 09:14:00,
2017-03-23 02:19:00,29.7,25.7,30.10,SSE,150,0.0,3.0,85,0.00,,,0.00,0.0,meteohub,2017-03-23 09:19:00,
2017-03-23 02:25:00,30.0,26.1,30.10,SSE,149,0.0,3.0,85,0.00,,,0.00,0.0,meteohub,2017-03-23 09:25:00,
2017-03-23 02:30:00,30.6,26.2,30.10,SSE,149,0.0,3.0,84,0.00,,,0.00,0.0,meteohub,2017-03-23 09:30:00,
2017-03-23 02:35:00,30.7,26.2,30.10,SSE,150,0.0,3.0,83,0.00,,,0.00,0.0,meteohub,2017-03-23 09:35:00,
2017-03-23 02:40:00,30.9,26.4,30.10,SSE,150,0.0,3.0,83,0.00,,,0.00,0.0,meteohub,2017-03-23 09:40:00,
2017-03-23 02:45:00,30.9,26.1,30.10,SSE,150,0.0,3.0,82,0.00,,,0.00,0.0,meteohub,2017-03-23 09:45:00,
2017-03-23 02:50:00,31.3,26.4,30.11,SSE,150,2.0,3.0,82,0.00,,,0.00,0.0,meteohub,2017-03-23 09:50:00,
2017-03-23 02:55:00,31.5,26.2,30.11,SSE,149,0.0,3.0,81,0.00,,,0.00,0.0,meteohub,2017-03-23 09:55:00,
2017-03-23 03:00:00,31.5,26.2,30.11,SSE,149,0.0,3.0,81,0.00,,,0.00,0.0,meteohub,2017-03-23 10:00:00,
2017-03-23 03:05:00,31.6,26.4,30.10,SSE,150,0.0,3.0,81,0.00,,,0.00,0.0,meteohub,2017-03-23 10:05:00,
2017-03-23 03:07:00,31.6,26.4,30.11,SSE,150,0.0,1.0,81,0.00,,,0.00,0.0,meteohub,2017-03-23 10:07:00,
2017-03-23 03:12:00,31.6,26.4,30.11,SSE,150,0.0,1.0,81,0.00,,,0.00,0.0,meteohub,2017-03-23 10:12:00,
2017-03-23 03:17:00,31.5,26.2,30.11,SSE,149,0.0,1.0,81,0.00,,,0.00,0.0,meteohub,2017-03-23 10:17:00,
2017-03-23 03:23:00,30.9,26.1,30.11,SSE,149,1.0,2.0,82,0.00,,,0.00,0.0,meteohub,2017-03-23 10:23:00,
2017-03-23 03:28:00,30.7,25.9,30.11,SSE,149,0.0,3.0,82,0.00,,,0.00,0.0,meteohub,2017-03-23 10:28:00,
2017-03-23 03:33:00,30.4,25.9,30.12,SSE,150,0.0,3.0,83,0.00,,,0.00,0.0,meteohub,2017-03-23 10:33:00,
2017-03-23 03:38:00,30.4,26.1,30.12,SSE,150,0.0,3.0,84,0.00,,,0.00,0.0,meteohub,2017-03-23 10:38:00,
2017-03-23 03:43:00,30.6,26.1,30.12,SSE,149,0.0,1.0,83,0.00,,,0.00,0.0,meteohub,2017-03-23 10:43:00,
2017-03-23 03:49:00,30.4,25.9,30.12,SSE,150,0.0,1.0,83,0.00,,,0.00,0.0,meteohub,2017-03-23 10:49:00,
2017-03-23 03:54:00,30.0,25.7,30.12,SSE,150,0.0,1.0,84,0.00,,,0.00,0.0,meteohub,2017-03-23 10:54:00,
2017-03-23 03:59:00,30.0,25.7,30.12,SSE,149,0.0,1.0,84,0.00,,,0.00,0.0,meteohub,2017-03-23 10:59:00,
2017-03-23 04:04:00,29.5,25.2,30.12,SSE,150,0.0,1.0,84,0.00,,,0.00,0.0,meteohub,2017-03-23 11:04:00,
2017-03-23 04:09:00,28.8,24.8,30.12,SSE,150,0.0,0.0,85,0.00,,,0.00,0.0,meteohub,2017-03-23 11:09:00,
2017-03-23 04:14:00,28.6,25.0,30.12,SSE,149,0.0,0.0,86,0.00,,,0.00,0.0,meteohub,2017-03-23 11:14:00,
2017-03-23 04:20:00,28.8,25.2,30.12,SSE,150,0.0,0.0,86,0.00,,,0.00,0.0,meteohub,2017-03-23 11:20:00,
2017-03-23 04:25:00,28.0,24.4,30.12,SSE,150,1.0,0.0,86,0.00,,,0.00,0.0,meteohub,2017-03-23 11:25:00,
2017-03-23 04:30:00,27.9,24.4,30.13,SSE,150,0.0,0.0,87,0.00,,,0.00,0.0,meteohub,2017-03-23 11:30:00,
2017-03-23 04:35:00,28.0,25.0,30.12,SSE,150,0.0,1.0,88,0.00,,,0.00,0.0,meteohub,2017-03-23 11:35:00,
2017-03-23 04:40:00,28.2,25.2,30.13,SSE,149,0.0,2.0,88,0.00,,,0.00,0.0,meteohub,2017-03-23 11:40:00,
2017-03-23 04:46:00,28.6,25.5,30.13,SSE,149,0.0,2.0,88,0.00,,,0.00,0.0,meteohub,2017-03-23 11:46:00,
2017-03-23 04:51:00,28.6,25.5,30.13,SSE,150,0.0,2.0,88,0.00,,,0.00,0.0,meteohub,2017-03-23 11:51:00,
2017-03-23 04:56:00,28.8,25.7,30.13,SSE,150,0.0,3.0,88,0.00,,,0.00,0.0,meteohub,2017-03-23 11:56:00,
2017-03-23 05:01:00,28.8,25.7,30.13,SSE,149,0.0,3.0,88,0.00,,,0.00,0.0,meteohub,2017-03-23 12:01:00,
2017-03-23 05:06:00,28.6,25.5,30.13,SSE,149,0.0,3.0,88,0.00,,,0.00,0.0,meteohub,2017-03-23 12:06:00,
2017-03-23 05:11:00,28.6,25.5,30.13,SSE,150,0.0,3.0,88,0.00,,,0.00,0.0,meteohub,2017-03-23 12:11:00,
2017-03-23 05:17:00,28.6,25.5,30.13,SSE,149,0.0,2.0,88,0.00,,,0.00,0.0,meteohub,2017-03-23 12:17:00,
2017-03-23 05:22:00,28.8,25.7,30.14,SSE,150,1.0,2.0,88,0.00,,,0.00,0.0,meteohub,2017-03-23 12:22:00,
2017-03-23 05:27:00,28.8,25.3,30.13,SSE,150,3.0,5.0,87,0.00,,,0.00,0.0,meteohub,2017-03-23 12:27:00,
2017-03-23 05:32:00,28.6,25.2,30.13,SSE,149,0.0,5.0,87,0.00,,,0.00,0.0,meteohub,2017-03-23 12:32:00,
2017-03-23 05:37:00,28.2,24.8,30.14,SSE,150,1.0,4.0,87,0.00,,,0.00,0.0,meteohub,2017-03-23 12:37:00,
2017-03-23 05:42:00,28.2,24.8,30.14,SSE,149,1.0,4.0,87,0.00,,,0.00,0.0,meteohub,2017-03-23 12:42:00,
2017-03-23 05:47:00,28.2,24.8,30.14,SSE,149,0.0,4.0,87,0.00,,,0.00,0.0,meteohub,2017-03-23 12:47:00,
2017-03-23 05:52:00,28.2,24.8,30.14,SSE,149,0.0,3.0,87,0.00,,,0.00,0.0,meteohub,2017-03-23 12:52:00,
2017-03-23 05:57:00,27.7,24.3,30.14,SSE,149,0.0,3.0,87,0.00,,,0.00,0.0,meteohub,2017-03-23 12:57:00,
2017-03-23 06:03:00,27.3,24.3,30.15,SSE,150,0.0,0.0,88,0.00,,,0.00,0.0,meteohub,2017-03-23 13:03:00,
2017-03-23 06:08:00,27.3,24.3,30.15,SSE,150,0.0,2.0,88,0.00,,,0.00,0.0,meteohub,2017-03-23 13:08:00,
2017-03-23 06:13:00,27.1,24.1,30.15,SSE,149,0.0,2.0,88,0.00,,,0.00,0.0,meteohub,2017-03-23 13:13:00,
2017-03-23 06:18:00,27.3,24.3,30.16,SSE,149,1.0,3.0,88,0.00,,,0.00,0.0,meteohub,2017-03-23 13:18:00,
2017-03-23 06:23:00,27.5,24.4,30.15,SSE,149,0.0,3.0,88,0.00,,,0.00,0.0,meteohub,2017-03-23 13:23:00,
2017-03-23 06:28:00,27.5,24.4,30.16,SSE,150,0.0,3.0,88,0.00,,,0.00,0.0,meteohub,2017-03-23 13:28:00,
2017-03-23 06:34:00,27.3,24.3,30.15,SSE,150,0.0,3.0,88,0.00,,,0.00,0.0,meteohub,2017-03-23 13:34:00,
2017-03-23 06:39:00,27.1,24.1,30.16,SSE,150,0.0,3.0,88,0.00,,,0.00,0.0,meteohub,2017-03-23 13:39:00,
2017-03-23 06:44:00,27.1,24.1,30.17,SSE,150,1.0,3.0,88,0.00,,,0.00,0.0,meteohub,2017-03-23 13:44:00,
2017-03-23 06:49:00,27.5,24.4,30.16,SSE,150,0.0,4.0,88,0.00,,,0.00,0.0,meteohub,2017-03-23 13:49:00,
2017-03-23 06:54:00,27.1,23.7,30.17,SSE,149,0.0,4.0,87,0.00,,,0.00,0.0,meteohub,2017-03-23 13:54:00,
2017-03-23 06:59:00,27.0,23.9,30.17,SSE,150,0.0,4.0,88,0.00,,,0.00,5.0,meteohub,2017-03-23 13:59:00,
2017-03-23 07:05:00,27.0,23.9,30.17,SSE,150,0.0,2.0,88,0.00,,,0.00,7.0,meteohub,2017-03-23 14:05:00,
2017-03-23 07:10:00,27.5,24.1,30.17,SSE,150,0.0,2.0,87,0.00,,,0.00,9.0,meteohub,2017-03-23 14:10:00,
2017-03-23 07:15:00,27.9,24.3,30.17,SSE,149,3.0,3.0,86,0.00,,,0.00,12.0,meteohub,2017-03-23 14:15:00,
2017-03-23 07:20:00,28.2,24.3,30.17,SSE,150,2.0,3.0,85,0.00,,,0.00,14.0,meteohub,2017-03-23 14:20:00,
2017-03-23 07:25:00,28.8,24.6,30.17,SSE,150,0.0,4.0,84,0.00,,,0.00,16.0,meteohub,2017-03-23 14:25:00,
2017-03-23 07:31:00,29.1,25.0,30.17,SSE,149,0.0,4.0,84,0.00,,,0.00,18.0,meteohub,2017-03-23 14:31:00,
2017-03-23 07:36:00,29.5,25.0,30.18,SSE,150,0.0,3.0,83,0.00,,,0.00,19.0,meteohub,2017-03-23 14:36:00,
2017-03-23 07:41:00,30.0,25.5,30.18,SSE,149,0.0,1.0,83,0.00,,,0.00,21.0,meteohub,2017-03-23 14:41:00,
2017-03-23 07:46:00,30.7,25.9,30.19,SSE,149,0.0,3.0,82,0.00,,,0.00,25.0,meteohub,2017-03-23 14:46:00,
2017-03-23 07:52:00,31.5,26.2,30.19,SSE,150,1.0,3.0,81,0.00,,,0.00,28.0,meteohub,2017-03-23 14:52:00,
2017-03-23 07:57:00,32.5,27.3,30.19,SSE,150,0.0,3.0,81,0.00,,,0.00,90.0,meteohub,2017-03-23 14:57:00,
2017-03-23 08:02:00,33.3,27.5,30.19,SSE,150,1.0,3.0,79,0.00,,,0.00,153.0,meteohub,2017-03-23 15:02:00,
2017-03-23 08:07:00,34.2,27.7,30.19,SSE,150,1.0,4.0,77,0.00,,,0.00,174.0,meteohub,2017-03-23 15:07:00,
2017-03-23 08:12:00,34.7,27.7,30.19,SSE,150,0.0,4.0,75,0.00,,,0.00,197.0,meteohub,2017-03-23 15:12:00,
2017-03-23 08:17:00,35.4,28.2,30.19,SSE,149,1.0,5.0,75,0.00,,,0.00,214.0,meteohub,2017-03-23 15:17:00,
2017-03-23 08:22:00,36.1,28.4,30.19,SSE,150,3.0,5.0,73,0.00,,,0.00,237.0,meteohub,2017-03-23 15:22:00,
2017-03-23 08:27:00,36.9,28.8,30.19,SSE,150,0.0,4.0,72,0.00,,,0.00,260.0,meteohub,2017-03-23 15:27:00,
2017-03-23 08:32:00,37.4,28.9,30.19,SSE,150,0.0,4.0,71,0.00,,,0.00,279.0,meteohub,2017-03-23 15:32:00,
2017-03-23 08:37:00,37.9,29.1,30.19,SSE,149,0.0,4.0,70,0.00,,,0.00,295.0,meteohub,2017-03-23 15:37:00,
2017-03-23 08:42:00,37.9,29.1,30.19,SSE,150,0.0,2.0,70,0.00,,,0.00,315.0,meteohub,2017-03-23 15:42:00,
2017-03-23 08:47:00,37.9,29.1,30.20,SSE,149,0.0,2.0,70,0.00,,,0.00,332.0,meteohub,2017-03-23 15:47:00,
2017-03-23 08:52:00,37.9,29.7,30.20,SSE,150,0.0,2.0,72,0.00,,,0.00,353.0,meteohub,2017-03-23 15:52:00,
2017-03-23 08:57:00,37.9,29.1,30.20,SSE,150,1.0,2.0,70,0.00,,,0.00,373.0,meteohub,2017-03-23 15:57:00,
2017-03-23 09:02:00,38.1,28.9,30.20,SSE,150,2.0,2.0,69,0.00,,,0.00,392.0,meteohub,2017-03-23 16:02:00,
2017-03-23 09:07:00,38.5,29.5,30.20,SSE,150,0.0,2.0,70,0.00,,,0.00,411.0,meteohub,2017-03-23 16:07:00,
2017-03-23 09:13:00,39.0,28.9,30.20,SSE,150,1.0,2.0,67,0.00,,,0.00,429.0,meteohub,2017-03-23 16:13:00,
2017-03-23 09:18:00,39.6,29.1,30.21,SSE,150,0.0,2.0,66,0.00,,,0.00,448.0,meteohub,2017-03-23 16:18:00,
2017-03-23 09:23:00,39.4,29.3,30.20,SSE,149,3.0,3.0,67,0.00,,,0.00,462.0,meteohub,2017-03-23 16:23:00,
2017-03-23 09:28:00,39.6,28.8,30.21,SSE,149,0.0,4.0,65,0.00,,,0.00,480.0,meteohub,2017-03-23 16:28:00,
2017-03-23 09:33:00,40.1,28.9,30.21,SSE,149,0.0,4.0,64,0.00,,,0.00,497.0,meteohub,2017-03-23 16:33:00,
2017-03-23 09:38:00,40.1,29.7,30.21,SSE,149,0.0,4.0,66,0.00,,,0.00,512.0,meteohub,2017-03-23 16:38:00,
2017-03-23 09:44:00,40.3,29.5,30.21,SSE,149,0.0,4.0,65,0.00,,,0.00,531.0,meteohub,2017-03-23 16:44:00,
2017-03-23 09:49:00,39.9,28.8,30.21,SSE,149,2.0,4.0,64,0.00,,,0.00,547.0,meteohub,2017-03-23 16:49:00,
2017-03-23 09:54:00,40.5,30.0,30.21,SSE,149,0.0,4.0,66,0.00,,,0.00,564.0,meteohub,2017-03-23 16:54:00,
2017-03-23 09:55:00,40.6,30.2,30.21,SSE,149,2.0,4.0,66,0.00,,,0.00,566.0,meteohub,2017-03-23 16:55:00,
2017-03-23 10:00:00,41.4,30.0,30.21,SSE,149,0.0,3.0,64,0.00,,,0.00,580.0,meteohub,2017-03-23 17:00:00,
2017-03-23 10:06:00,42.3,30.9,30.22,SSE,149,0.0,3.0,64,0.00,,,0.00,598.0,meteohub,2017-03-23 17:06:00,
2017-03-23 10:11:00,43.2,30.2,30.22,SSE,149,0.0,4.0,60,0.00,,,0.00,615.0,meteohub,2017-03-23 17:11:00,
2017-03-23 10:16:00,42.1,29.7,30.22,SSE,149,0.0,4.0,61,0.00,,,0.00,631.0,meteohub,2017-03-23 17:16:00,
2017-03-23 10:21:00,42.3,30.2,30.22,SSE,149,0.0,3.0,62,0.00,,,0.00,645.0,meteohub,2017-03-23 17:21:00,
2017-03-23 10:26:00,42.1,29.7,30.22,SSE,149,2.0,3.0,61,0.00,,,0.00,659.0,meteohub,2017-03-23 17:26:00,
2017-03-23 10:31:00,42.4,30.7,30.22,SSE,149,0.0,4.0,63,0.00,,,0.00,671.0,meteohub,2017-03-23 17:31:00,
2017-03-23 10:37:00,43.7,30.4,30.23,SSE,149,0.0,4.0,59,0.00,,,0.00,687.0,meteohub,2017-03-23 17:37:00,
2017-03-23 10:42:00,44.2,31.3,30.22,SSE,149,2.0,4.0,60,0.00,,,0.00,698.0,meteohub,2017-03-23 17:42:00,
2017-03-23 10:47:00,44.1,31.1,30.23,SSE,149,0.0,4.0,60,0.00,,,0.00,710.0,meteohub,2017-03-23 17:47:00,
2017-03-23 10:52:00,43.9,30.9,30.23,SSE,149,0.0,3.0,60,0.00,,,0.00,724.0,meteohub,2017-03-23 17:52:00,
2017-03-23 10:57:00,43.9,30.9,30.23,SSE,149,0.0,4.0,60,0.00,,,0.00,735.0,meteohub,2017-03-23 17:57:00,
2017-03-23 11:02:00,44.2,31.3,30.23,SSE,149,0.0,4.0,60,0.00,,,0.00,744.0,meteohub,2017-03-23 18:02:00,
2017-03-23 11:08:00,43.9,30.6,30.24,SSE,149,0.0,4.0,59,0.00,,,0.00,758.0,meteohub,2017-03-23 18:08:00,
2017-03-23 11:13:00,44.4,30.9,30.24,SSE,149,3.0,4.0,59,0.00,,,0.00,765.0,meteohub,2017-03-23 18:13:00,
2017-03-23 11:18:00,44.4,31.8,30.23,SSE,149,0.0,4.0,61,0.00,,,0.00,777.0,meteohub,2017-03-23 18:18:00,
2017-03-23 11:20:00,44.8,32.2,30.23,SSE,149,2.0,4.0,61,0.00,,,0.00,780.0,meteohub,2017-03-23 18:20:00,
2017-03-23 11:26:00,45.3,31.5,30.24,SE,145,0.0,4.0,58,0.00,,,0.00,795.0,meteohub,2017-03-23 18:26:00,
2017-03-23 11:31:00,45.9,32.7,30.23,SE,145,0.0,5.0,60,0.00,,,0.00,802.0,meteohub,2017-03-23 18:31:00,
2017-03-23 11:36:00,46.6,32.2,30.22,SE,138,2.0,7.0,57,0.00,,,0.00,812.0,meteohub,2017-03-23 18:36:00,
2017-03-23 11:41:00,46.6,30.7,30.23,ESE,112,8.0,9.0,54,0.00,,,0.00,819.0,meteohub,2017-03-23 18:41:00,
2017-03-23 11:46:00,46.8,31.8,30.22,ESE,106,0.0,9.0,56,0.00,,,0.00,828.0,meteohub,2017-03-23 18:46:00,
2017-03-23 11:51:00,46.9,30.7,30.22,ESE,104,3.0,9.0,53,0.00,,,0.00,837.0,meteohub,2017-03-23 18:51:00,
2017-03-23 11:57:00,46.9,32.9,30.22,ESE,103,2.0,8.0,58,0.00,,,0.00,844.0,meteohub,2017-03-23 18:57:00,
2017-03-23 12:02:00,46.2,30.9,30.22,ESE,102,0.0,8.0,55,0.00,,,0.00,849.0,meteohub,2017-03-23 19:02:00,
2017-03-23 12:07:00,46.8,30.6,30.22,ESE,102,1.0,8.0,53,0.00,,,0.00,856.0,meteohub,2017-03-23 19:07:00,
2017-03-23 12:12:00,47.1,31.3,30.22,ESE,102,2.0,8.0,54,0.00,,,0.00,861.0,meteohub,2017-03-23 19:12:00,
2017-03-23 12:17:00,47.8,30.6,30.22,East,83,1.0,8.0,51,0.00,,,0.00,868.0,meteohub,2017-03-23 19:17:00,
2017-03-23 12:22:00,48.0,32.2,30.21,East,83,2.0,7.0,54,0.00,,,0.00,870.0,meteohub,2017-03-23 19:22:00,
2017-03-23 12:32:00,48.7,30.9,30.22,East,97,2.0,7.0,50,0.00,,,0.00,881.0,meteohub,2017-03-23 19:32:00,
2017-03-23 12:37:00,48.7,31.5,30.21,NE,56,4.0,7.0,51,0.00,,,0.00,882.0,meteohub,2017-03-23 19:37:00,
2017-03-23 12:42:00,47.8,30.6,30.21,East,79,0.0,9.0,51,0.00,,,0.00,882.0,meteohub,2017-03-23 19:42:00,
2017-03-23 12:47:00,48.9,30.0,30.21,ENE,73,0.0,9.0,48,0.00,,,0.00,889.0,meteohub,2017-03-23 19:47:00,
2017-03-23 12:52:00,49.6,31.8,30.20,NE,52,1.0,9.0,50,0.00,,,0.00,888.0,meteohub,2017-03-23 19:52:00,
2017-03-23 12:57:00,49.8,32.0,30.20,NE,52,2.0,8.0,50,0.00,,,0.00,893.0,meteohub,2017-03-23 19:57:00,
2017-03-23 13:02:00,50.7,31.3,30.20,NE,47,1.0,8.0,47,0.00,,,0.00,891.0,meteohub,2017-03-23 20:02:00,
2017-03-23 13:08:00,50.4,31.5,30.20,ENE,58,0.0,5.0,48,0.00,,,0.00,895.0,meteohub,2017-03-23 20:08:00,
2017-03-23 13:13:00,50.9,32.4,30.20,SW,216,2.0,7.0,49,0.00,,,0.00,898.0,meteohub,2017-03-23 20:13:00,
2017-03-23 13:18:00,51.4,31.8,30.20,NNW,337,0.0,8.0,47,0.00,,,0.00,893.0,meteohub,2017-03-23 20:18:00,
2017-03-23 13:23:00,52.2,32.0,30.20,NNW,336,0.0,8.0,46,0.00,,,0.00,893.0,meteohub,2017-03-23 20:23:00,
2017-03-23 13:28:00,52.5,34.0,30.20,NNW,337,1.0,8.0,49,0.00,,,0.00,889.0,meteohub,2017-03-23 20:28:00,
2017-03-23 13:34:00,52.3,30.6,30.20,NNW,337,1.0,7.0,43,0.00,,,0.00,888.0,meteohub,2017-03-23 20:34:00,
2017-03-23 13:39:00,52.0,31.8,30.20,NNW,337,1.0,4.0,46,0.00,,,0.00,889.0,meteohub,2017-03-23 20:39:00,
2017-03-23 13:44:00,52.5,32.9,30.19,NE,50,9.0,9.0,47,0.00,,,0.00,888.0,meteohub,2017-03-23 20:44:00,
2017-03-23 13:49:00,51.6,30.9,30.19,NE,52,5.0,5.0,45,0.00,,,0.00,882.0,meteohub,2017-03-23 20:49:00,
2017-03-23 13:55:00,51.6,30.4,30.19,NE,46,0.0,9.0,44,0.00,,,0.00,877.0,meteohub,2017-03-23 20:55:00,
2017-03-23 14:00:00,52.5,32.4,30.18,NE,43,5.0,9.0,46,0.00,,,0.00,877.0,meteohub,2017-03-23 21:00:00,
2017-03-23 14:05:00,54.0,32.0,30.18,NE,52,2.0,7.0,43,0.00,,,0.00,874.0,meteohub,2017-03-23 21:05:00,
2017-03-23 14:10:00,53.2,30.2,30.18,East,84,1.0,7.0,41,0.00,,,0.00,870.0,meteohub,2017-03-23 21:10:00,
2017-03-23 14:15:00,52.7,29.7,30.18,East,85,0.0,8.0,41,0.00,,,0.00,863.0,meteohub,2017-03-23 21:15:00,
2017-03-23 14:21:00,53.1,31.1,30.17,East,89,1.0,8.0,43,0.00,,,0.00,856.0,meteohub,2017-03-23 21:21:00,
2017-03-23 14:26:00,54.0,29.5,30.17,SSE,166,1.0,9.0,39,0.00,,,0.00,840.0,meteohub,2017-03-23 21:26:00,
2017-03-23 14:31:00,54.7,27.5,30.17,SSE,163,0.0,9.0,35,0.00,,,0.00,833.0,meteohub,2017-03-23 21:31:00,
2017-03-23 14:36:00,54.1,28.4,30.17,SSE,163,1.0,9.0,37,0.00,,,0.00,817.0,meteohub,2017-03-23 21:36:00,
2017-03-23 14:41:00,53.4,28.4,30.17,SSE,162,2.0,4.0,38,0.00,,,0.00,814.0,meteohub,2017-03-23 21:41:00,
2017-03-23 14:43:00,53.4,27.9,30.17,SSE,163,1.0,4.0,37,0.00,,,0.00,824.0,meteohub,2017-03-23 21:43:00,
2017-03-23 14:48:00,53.8,30.0,30.17,SSE,162,0.0,4.0,40,0.00,,,0.00,821.0,meteohub,2017-03-23 21:48:00,
2017-03-23 14:53:00,55.0,29.3,30.17,SE,145,2.0,4.0,37,0.00,,,0.00,807.0,meteohub,2017-03-23 21:53:00,